createdAt,value
2022-11-13T00:04:49.359Z,12.9
2022-11-13T00:23:19.428Z,13.9
2022-11-13T00:29:50.179Z,14.4
2022-11-13T00:36:03.341Z,14.5
2022-11-13T00:42:11.645Z,16.7
2022-11-13T00:48:19.219Z,15.5
2022-11-13T00:54:17.039Z,15.6
2022-11-13T01:00:08.943Z,14.5
2022-11-13T01:06:04.769Z,15.3
2022-11-13T01:12:12.889Z,14.3
2022-11-13T01:18:13.665Z,14.5
2022-11-13T01:24:10.002Z,13.7
2022-11-13T01:30:12.313Z,14.4
2022-11-13T01:36:03.881Z,14.4
2022-11-13T01:42:00.250Z,16.4
2022-11-13T01:47:53.021Z,15.7
2022-11-13T01:53:50.624Z,17
2022-11-13T01:59:44.309Z,15.9
2022-11-13T02:05:43.592Z,16.3
2022-11-13T02:11:35.119Z,16.4
2022-11-13T02:17:33.020Z,17.1
2022-11-13T02:23:53.054Z,17.1
2022-11-13T02:29:57.112Z,15.7
2022-11-13T02:35:57.166Z,17.8
2022-11-13T02:41:50.772Z,15.3
2022-11-13T02:47:42.371Z,15.1
2022-11-13T02:53:38.562Z,16.1
2022-11-13T02:59:35.209Z,16.8
2022-11-13T03:05:27.442Z,16.2
2022-11-13T03:11:19.964Z,16.9
2022-11-13T03:17:20.455Z,15.6
2022-11-13T03:23:22.803Z,16.8
2022-11-13T03:29:21.266Z,17.2
2022-11-13T03:35:12.163Z,17.1
2022-11-13T03:41:01.934Z,16.2
2022-11-13T03:46:53.077Z,16.6
2022-11-13T03:52:45.893Z,16.3
2022-11-13T03:58:53.293Z,15.4
2022-11-13T04:04:45.908Z,14.6
2022-11-13T04:10:38.312Z,14.5
2022-11-13T04:16:31.074Z,13.9
2022-11-13T04:22:22.028Z,14.1
2022-11-13T04:28:15.148Z,13.8
2022-11-13T04:34:06.757Z,15.8
2022-11-13T04:40:04.957Z,14.6
2022-11-13T04:45:57.337Z,15.4
2022-11-13T04:51:52.146Z,16.3
2022-11-13T04:57:45.254Z,15.1
2022-11-13T05:03:41.264Z,15.6
2022-11-13T05:09:33.913Z,15.4
2022-11-13T05:15:29.228Z,15.4
2022-11-13T05:21:34.880Z,15.4
2022-11-13T05:27:40.178Z,15.9
2022-11-13T05:33:37.262Z,15.8
2022-11-13T05:39:43.341Z,16.4
2022-11-13T05:45:46.337Z,16.3
2022-11-13T05:51:37.381Z,15.8
2022-11-13T05:57:38.515Z,15.7
2022-11-13T06:03:30.722Z,17.9
2022-11-13T06:10:35.414Z,17.9
2022-11-13T06:22:40.369Z,16.8
2022-11-13T06:34:42.787Z,16
2022-11-13T06:40:32.863Z,15.9
2022-11-13T06:46:24.541Z,15.9
2022-11-13T06:52:17.122Z,15.4
2022-11-13T06:58:06.974Z,16.9
2022-11-13T07:04:11.946Z,16.5
2022-11-13T07:10:03.725Z,16.4
2022-11-13T07:15:57.479Z,16
2022-11-13T12:21:46.818Z,3.8
2022-11-13T12:39:43.492Z,3.5
2022-11-13T13:04:58.165Z,3.6
2022-11-13T13:10:56.647Z,3.3
2022-11-13T13:16:48.107Z,3.4
2022-11-13T13:22:41.147Z,2.9
2022-11-13T13:35:22.591Z,2.6
2022-11-13T13:48:24.029Z,2.5
2022-11-13T14:00:22.773Z,2.5
2022-11-13T14:13:15.500Z,2.9
2022-11-13T14:19:05.340Z,2.7
2022-11-13T14:24:56.495Z,3.3
2022-11-13T14:30:47.243Z,3.6
2022-11-13T14:36:36.755Z,3.4
2022-11-13T14:42:28.019Z,3.4
2022-11-13T14:48:18.513Z,3.5
2022-11-13T14:54:14.717Z,3.5
2022-11-13T15:00:04.884Z,3.3
2022-11-13T15:05:55.776Z,3.7
2022-11-13T15:11:46.246Z,4
2022-11-13T15:17:36.891Z,4.4
2022-11-13T15:23:28.357Z,4.7
2022-11-13T15:29:19.284Z,4.6
2022-11-13T15:35:10.261Z,5.1
2022-11-13T15:41:00.645Z,5
2022-11-13T15:46:50.562Z,7.2
2022-11-13T15:52:41.031Z,6.6
2022-11-13T15:58:37.826Z,4.5
2022-11-13T16:04:58.563Z,4.3
2022-11-13T16:10:47.098Z,4.7
2022-11-13T16:16:37.264Z,6.4
2022-11-13T16:22:28.767Z,5.5
2022-11-13T16:28:18.451Z,9.1
2022-11-13T16:34:09.014Z,8.5
2022-11-13T16:40:02.101Z,8.8
2022-11-13T16:45:52.597Z,9.1
2022-11-13T16:51:43.543Z,9.2
2022-11-13T16:57:33.694Z,9.5
2022-11-13T17:03:23.395Z,10.6
2022-11-13T17:09:13.578Z,9.7
2022-11-13T17:15:04.285Z,15.6
2022-11-13T17:20:55.699Z,31.3
2022-11-13T17:26:46.038Z,39.2
2022-11-13T17:32:36.315Z,19.4
2022-11-13T17:38:26.606Z,16.2
2022-11-13T17:44:16.630Z,16
2022-11-13T17:50:13.475Z,14.7
2022-11-13T17:56:04.648Z,15.9
2022-11-13T18:01:56.351Z,18.3
2022-11-13T18:07:46.690Z,17
2022-11-13T18:13:38.614Z,21.3
2022-11-13T18:19:30.377Z,15.6
2022-11-13T18:25:21.428Z,17.5
2022-11-13T18:31:11.107Z,14.9
2022-11-13T18:37:01.310Z,20.5
2022-11-13T18:42:52.303Z,22.3
2022-11-13T18:48:42.349Z,23.5
2022-11-13T18:54:32.713Z,23.8
2022-11-13T19:00:23.242Z,22.1
2022-11-13T19:06:12.092Z,20.8
2022-11-13T19:12:02.854Z,23.2
2022-11-13T19:17:59.847Z,24.2
2022-11-13T19:23:49.359Z,23
2022-11-13T19:29:40.279Z,31.5
2022-11-13T19:35:30.733Z,24.4
2022-11-13T19:41:22.373Z,39.8
2022-11-13T19:47:13.530Z,27
2022-11-13T19:53:04.857Z,37.3
2022-11-13T19:58:55.584Z,31.3
2022-11-13T20:04:45.525Z,25.1
2022-11-13T20:10:36.919Z,35.3
2022-11-13T20:16:28.073Z,30.4
2022-11-13T20:22:18.106Z,28.6
2022-11-13T20:28:08.448Z,26.1
2022-11-13T20:33:58.805Z,23.3
2022-11-13T20:39:50.393Z,19.1
2022-11-13T20:45:40.662Z,23
2022-11-13T20:51:31.839Z,25.5
2022-11-13T20:57:22.739Z,28.7
2022-11-13T21:03:19.715Z,30.2
2022-11-13T21:09:09.992Z,30
2022-11-13T21:14:59.567Z,28.7
2022-11-13T21:20:50.182Z,28.1
2022-11-13T21:26:40.588Z,27.4
2022-11-13T21:32:30.852Z,29.2
2022-11-13T21:38:21.810Z,31.2
2022-11-13T21:44:12.394Z,27.5
2022-11-13T21:50:04.553Z,27.1
2022-11-13T21:55:55.300Z,23.1
2022-11-13T22:01:47.166Z,22.6
2022-11-13T22:07:38.482Z,25.3
2022-11-13T22:13:31.045Z,38.4
2022-11-13T22:19:35.873Z,34.5
2022-11-13T22:25:27.028Z,34
2022-11-13T22:31:17.850Z,28.2
2022-11-13T22:37:08.724Z,37.7
2022-11-13T22:43:07.285Z,38.4
2022-11-13T22:48:58.394Z,30.5
2022-11-13T22:54:49.569Z,28.3
2022-11-13T23:00:40.321Z,26.2
2022-11-13T23:06:31.320Z,24.8
2022-11-13T23:12:22.800Z,24.7
2022-11-13T23:18:17.095Z,19.4
2022-11-13T23:24:07.411Z,25.3
2022-11-13T23:30:00.658Z,22.5
2022-11-13T23:35:51.272Z,19.7
2022-11-13T23:41:42.697Z,26.2
2022-11-13T23:47:33.505Z,26.4
2022-11-13T23:53:23.748Z,27.4
2022-11-13T23:59:14.845Z,27.1
